sensor_id;sensor_type;location;lat;lon;timestamp;temperature;humidity
1391;DHT22;690;51.454;7.194;2022-11-24T00:01:23;11.00;1.00
1391;DHT22;690;51.454;7.194;2022-11-24T00:03:55;11.00;1.00
1391;DHT22;690;51.454;7.194;2022-11-24T00:06:22;11.00;1.00
1391;DHT22;690;51.454;7.194;2022-11-24T00:08:51;11.00;1.00
1391;DHT22;690;51.454;7.194;2022-11-24T00:11:21;11.00;1.00
1391;DHT22;690;51.454;7.194;2022-11-24T00:13:48;10.90;1.00
1391;DHT22;690;51.454;7.194;2022-11-24T00:16:17;11.00;1.00
1391;DHT22;690;51.454;7.194;2022-11-24T00:18:46;10.90;1.00
1391;DHT22;690;51.454;7.194;2022-11-24T00:21:14;10.90;99.90
1391;DHT22;690;51.454;7.194;2022-11-24T00:23:41;10.90;99.90
1391;DHT22;690;51.454;7.194;2022-11-24T00:26:12;10.90;99.90
1391;DHT22;690;51.454;7.194;2022-11-24T00:28:40;10.90;99.90
1391;DHT22;690;51.454;7.194;2022-11-24T00:31:17;10.90;99.90
1391;DHT22;690;51.454;7.194;2022-11-24T00:33:44;10.90;99.90
1391;DHT22;690;51.454;7.194;2022-11-24T00:36:11;10.80;99.90
1391;DHT22;690;51.454;7.194;2022-11-24T00:38:38;10.80;99.90
1391;DHT22;690;51.454;7.194;2022-11-24T00:41:05;10.80;99.90
1391;DHT22;690;51.454;7.194;2022-11-24T00:43:34;10.80;99.90
1391;DHT22;690;51.454;7.194;2022-11-24T00:46:01;10.80;99.90
1391;DHT22;690;51.454;7.194;2022-11-24T00:48:28;10.70;99.90
1391;DHT22;690;51.454;7.194;2022-11-24T00:50:56;10.70;99.90
1391;DHT22;690;51.454;7.194;2022-11-24T00:53:24;10.70;99.90
1391;DHT22;690;51.454;7.194;2022-11-24T00:55:51;10.70;99.90
1391;DHT22;690;51.454;7.194;2022-11-24T00:58:18;10.70;99.90
1391;DHT22;690;51.454;7.194;2022-11-24T01:00:46;10.70;99.90
1391;DHT22;690;51.454;7.194;2022-11-24T01:03:14;10.70;99.90
1391;DHT22;690;51.454;7.194;2022-11-24T01:05:41;10.70;99.90
1391;DHT22;690;51.454;7.194;2022-11-24T01:08:09;10.70;99.90
1391;DHT22;690;51.454;7.194;2022-11-24T01:10:36;10.70;99.90
1391;DHT22;690;51.454;7.194;2022-11-24T01:13:03;10.60;99.90
1391;DHT22;690;51.454;7.194;2022-11-24T01:15:30;10.60;99.90
1391;DHT22;690;51.454;7.194;2022-11-24T01:17:58;10.60;94.80
1391;DHT22;690;51.454;7.194;2022-11-24T01:20:25;10.60;80.50
1391;DHT22;690;51.454;7.194;2022-11-24T01:22:52;10.60;65.20
1391;DHT22;690;51.454;7.194;2022-11-24T01:25:19;10.60;31.90
1391;DHT22;690;51.454;7.194;2022-11-24T01:27:46;10.60;39.10
1391;DHT22;690;51.454;7.194;2022-11-24T01:30:13;10.50;68.40
1391;DHT22;690;51.454;7.194;2022-11-24T01:32:39;10.50;46.10
1391;DHT22;690;51.454;7.194;2022-11-24T01:35:09;10.50;56.50
1391;DHT22;690;51.454;7.194;2022-11-24T01:37:35;10.50;84.40
1391;DHT22;690;51.454;7.194;2022-11-24T01:40:03;10.50;81.10
1391;DHT22;690;51.454;7.194;2022-11-24T01:42:38;10.50;73.90
1391;DHT22;690;51.454;7.194;2022-11-24T01:45:30;10.50;99.90
1391;DHT22;690;51.454;7.194;2022-11-24T01:47:58;10.50;99.90
1391;DHT22;690;51.454;7.194;2022-11-24T01:50:28;10.50;99.90
1391;DHT22;690;51.454;7.194;2022-11-24T01:52:55;10.50;96.90
1391;DHT22;690;51.454;7.194;2022-11-24T01:55:24;10.50;63.60
1391;DHT22;690;51.454;7.194;2022-11-24T01:57:55;10.50;74.20
1391;DHT22;690;51.454;7.194;2022-11-24T02:00:23;10.40;97.80
1391;DHT22;690;51.454;7.194;2022-11-24T02:02:52;10.40;77.90
1391;DHT22;690;51.454;7.194;2022-11-24T02:05:21;10.40;24.10
1391;DHT22;690;51.454;7.194;2022-11-24T02:07:53;10.40;6.00
1391;DHT22;690;51.454;7.194;2022-11-24T02:10:21;10.40;1.00
1391;DHT22;690;51.454;7.194;2022-11-24T02:12:51;10.50;10.20
1391;DHT22;690;51.454;7.194;2022-11-24T02:15:19;10.50;37.40
1391;DHT22;690;51.454;7.194;2022-11-24T02:17:46;10.50;32.40
1391;DHT22;690;51.454;7.194;2022-11-24T02:20:14;10.50;49.20
1391;DHT22;690;51.454;7.194;2022-11-24T02:22:46;10.60;12.40
1391;DHT22;690;51.454;7.194;2022-11-24T02:25:23;10.60;4.80
1391;DHT22;690;51.454;7.194;2022-11-24T02:27:53;10.70;1.00
1391;DHT22;690;51.454;7.194;2022-11-24T02:30:21;10.60;24.90
1391;DHT22;690;51.454;7.194;2022-11-24T02:32:49;10.70;42.70
1391;DHT22;690;51.454;7.194;2022-11-24T02:35:17;10.70;28.70
1391;DHT22;690;51.454;7.194;2022-11-24T02:37:44;10.70;1.00
1391;DHT22;690;51.454;7.194;2022-11-24T02:40:13;10.70;1.00
1391;DHT22;690;51.454;7.194;2022-11-24T02:42:43;10.70;1.00
1391;DHT22;690;51.454;7.194;2022-11-24T02:45:14;10.70;1.00
1391;DHT22;690;51.454;7.194;2022-11-24T02:47:42;10.70;1.00
1391;DHT22;690;51.454;7.194;2022-11-24T02:50:10;10.70;1.00
1391;DHT22;690;51.454;7.194;2022-11-24T02:52:37;10.70;1.00
1391;DHT22;690;51.454;7.194;2022-11-24T02:55:04;10.70;1.00
1391;DHT22;690;51.454;7.194;2022-11-24T02:57:31;10.80;1.00
1391;DHT22;690;51.454;7.194;2022-11-24T02:59:58;10.80;1.00
1391;DHT22;690;51.454;7.194;2022-11-24T03:02:26;10.80;1.00
1391;DHT22;690;51.454;7.194;2022-11-24T03:04:53;10.70;1.00
1391;DHT22;690;51.454;7.194;2022-11-24T03:07:20;10.80;1.00
1391;DHT22;690;51.454;7.194;2022-11-24T03:09:47;10.70;1.00
1391;DHT22;690;51.454;7.194;2022-11-24T03:12:14;10.70;1.00
1391;DHT22;690;51.454;7.194;2022-11-24T03:14:44;10.70;1.00
1391;DHT22;690;51.454;7.194;2022-11-24T03:17:11;10.70;1.00
1391;DHT22;690;51.454;7.194;2022-11-24T03:19:39;10.70;1.00
1391;DHT22;690;51.454;7.194;2022-11-24T03:22:06;10.70;1.00
1391;DHT22;690;51.454;7.194;2022-11-24T03:24:33;10.60;1.00
1391;DHT22;690;51.454;7.194;2022-11-24T03:26:59;10.70;1.00
1391;DHT22;690;51.454;7.194;2022-11-24T03:29:26;10.70;1.00
1391;DHT22;690;51.454;7.194;2022-11-24T03:31:53;10.70;1.00
1391;DHT22;690;51.454;7.194;2022-11-24T03:34:20;10.70;1.00
1391;DHT22;690;51.454;7.194;2022-11-24T03:36:48;10.80;1.00
1391;DHT22;690;51.454;7.194;2022-11-24T03:39:15;10.80;1.00
1391;DHT22;690;51.454;7.194;2022-11-24T03:41:42;10.80;1.00
1391;DHT22;690;51.454;7.194;2022-11-24T03:44:09;10.80;1.00
1391;DHT22;690;51.454;7.194;2022-11-24T03:46:35;10.80;1.00
1391;DHT22;690;51.454;7.194;2022-11-24T03:49:02;10.80;1.00
1391;DHT22;690;51.454;7.194;2022-11-24T03:51:29;10.80;1.00
1391;DHT22;690;51.454;7.194;2022-11-24T03:53:57;10.80;1.00
1391;DHT22;690;51.454;7.194;2022-11-24T03:56:24;10.80;1.00
1391;DHT22;690;51.454;7.194;2022-11-24T03:58:51;10.80;1.00
1391;DHT22;690;51.454;7.194;2022-11-24T04:01:18;10.80;1.00
1391;DHT22;690;51.454;7.194;2022-11-24T04:03:44;10.90;1.00
1391;DHT22;690;51.454;7.194;2022-11-24T04:06:11;10.90;1.00
1391;DHT22;690;51.454;7.194;2022-11-24T04:08:38;10.80;1.00
1391;DHT22;690;51.454;7.194;2022-11-24T04:11:06;10.80;1.00
1391;DHT22;690;51.454;7.194;2022-11-24T04:13:33;10.80;1.00
1391;DHT22;690;51.454;7.194;2022-11-24T04:15:59;10.80;1.00
1391;DHT22;690;51.454;7.194;2022-11-24T04:18:26;10.90;1.00
1391;DHT22;690;51.454;7.194;2022-11-24T04:20:53;10.90;1.00
1391;DHT22;690;51.454;7.194;2022-11-24T04:23:19;10.90;1.00
1391;DHT22;690;51.454;7.194;2022-11-24T04:25:46;11.00;1.00
1391;DHT22;690;51.454;7.194;2022-11-24T04:28:14;11.00;1.00
1391;DHT22;690;51.454;7.194;2022-11-24T04:30:42;11.10;1.00
1391;DHT22;690;51.454;7.194;2022-11-24T04:33:10;11.10;1.00
1391;DHT22;690;51.454;7.194;2022-11-24T04:35:37;11.20;1.00
1391;DHT22;690;51.454;7.194;2022-11-24T04:38:04;11.20;1.00
1391;DHT22;690;51.454;7.194;2022-11-24T04:40:31;11.20;1.00
1391;DHT22;690;51.454;7.194;2022-11-24T04:42:58;11.20;1.00
1391;DHT22;690;51.454;7.194;2022-11-24T04:45:26;11.20;99.90
1391;DHT22;690;51.454;7.194;2022-11-24T04:47:53;11.30;1.00
1391;DHT22;690;51.454;7.194;2022-11-24T04:50:20;11.30;1.00
1391;DHT22;690;51.454;7.194;2022-11-24T04:52:47;11.30;99.90
1391;DHT22;690;51.454;7.194;2022-11-24T04:55:14;11.30;99.90
1391;DHT22;690;51.454;7.194;2022-11-24T04:57:40;11.30;1.00
1391;DHT22;690;51.454;7.194;2022-11-24T05:00:08;11.30;1.00
1391;DHT22;690;51.454;7.194;2022-11-24T05:02:37;11.30;1.00
1391;DHT22;690;51.454;7.194;2022-11-24T05:05:05;11.30;1.00
1391;DHT22;690;51.454;7.194;2022-11-24T05:07:32;11.30;1.00
1391;DHT22;690;51.454;7.194;2022-11-24T05:10:00;11.30;1.00
1391;DHT22;690;51.454;7.194;2022-11-24T05:12:56;11.30;1.00
1391;DHT22;690;51.454;7.194;2022-11-24T05:15:24;11.30;1.00
1391;DHT22;690;51.454;7.194;2022-11-24T05:17:53;11.30;1.00
1391;DHT22;690;51.454;7.194;2022-11-24T05:20:20;11.30;1.00
1391;DHT22;690;51.454;7.194;2022-11-24T05:22:47;11.30;1.00
1391;DHT22;690;51.454;7.194;2022-11-24T05:25:14;11.40;1.00
1391;DHT22;690;51.454;7.194;2022-11-24T05:27:41;11.40;1.00
1391;DHT22;690;51.454;7.194;2022-11-24T05:30:09;11.40;1.00
1391;DHT22;690;51.454;7.194;2022-11-24T05:32:36;11.40;1.00
1391;DHT22;690;51.454;7.194;2022-11-24T05:35:05;11.50;1.00
1391;DHT22;690;51.454;7.194;2022-11-24T05:37:34;11.50;1.00
1391;DHT22;690;51.454;7.194;2022-11-24T05:40:01;11.50;1.00
1391;DHT22;690;51.454;7.194;2022-11-24T05:42:28;11.50;1.00
1391;DHT22;690;51.454;7.194;2022-11-24T05:45:09;11.50;1.00
1391;DHT22;690;51.454;7.194;2022-11-24T05:47:37;11.50;1.00
1391;DHT22;690;51.454;7.194;2022-11-24T05:50:06;11.50;1.00
1391;DHT22;690;51.454;7.194;2022-11-24T05:52:33;11.50;1.00
1391;DHT22;690;51.454;7.194;2022-11-24T05:55:00;11.50;1.00
1391;DHT22;690;51.454;7.194;2022-11-24T05:57:27;11.50;1.00
1391;DHT22;690;51.454;7.194;2022-11-24T05:59:54;11.60;1.00
1391;DHT22;690;51.454;7.194;2022-11-24T06:02:21;11.50;1.00
1391;DHT22;690;51.454;7.194;2022-11-24T06:04:48;11.60;1.00
1391;DHT22;690;51.454;7.194;2022-11-24T06:07:16;11.60;1.00
1391;DHT22;690;51.454;7.194;2022-11-24T06:09:44;11.60;1.00
1391;DHT22;690;51.454;7.194;2022-11-24T06:12:11;11.60;1.00
1391;DHT22;690;51.454;7.194;2022-11-24T06:14:38;11.60;99.90
1391;DHT22;690;51.454;7.194;2022-11-24T06:17:06;11.60;99.90
1391;DHT22;690;51.454;7.194;2022-11-24T06:19:33;11.70;99.90
1391;DHT22;690;51.454;7.194;2022-11-24T06:22:00;11.70;99.90
1391;DHT22;690;51.454;7.194;2022-11-24T06:24:28;11.70;99.90
1391;DHT22;690;51.454;7.194;2022-11-24T06:26:55;11.80;99.90
1391;DHT22;690;51.454;7.194;2022-11-24T06:29:22;11.70;99.90
1391;DHT22;690;51.454;7.194;2022-11-24T06:31:49;11.70;99.90
1391;DHT22;690;51.454;7.194;2022-11-24T06:34:15;11.70;99.90
1391;DHT22;690;51.454;7.194;2022-11-24T06:36:42;11.70;99.90
1391;DHT22;690;51.454;7.194;2022-11-24T06:39:09;11.70;99.90
1391;DHT22;690;51.454;7.194;2022-11-24T06:41:37;11.70;99.90
1391;DHT22;690;51.454;7.194;2022-11-24T06:44:04;11.60;99.90
1391;DHT22;690;51.454;7.194;2022-11-24T06:46:32;11.60;99.90
1391;DHT22;690;51.454;7.194;2022-11-24T06:48:59;11.60;99.90
1391;DHT22;690;51.454;7.194;2022-11-24T06:51:26;11.60;99.90
1391;DHT22;690;51.454;7.194;2022-11-24T06:53:53;11.60;99.90
1391;DHT22;690;51.454;7.194;2022-11-24T06:56:21;11.50;99.90
1391;DHT22;690;51.454;7.194;2022-11-24T06:58:50;11.50;99.90
1391;DHT22;690;51.454;7.194;2022-11-24T07:01:19;11.50;99.90
1391;DHT22;690;51.454;7.194;2022-11-24T07:03:47;11.50;99.90
1391;DHT22;690;51.454;7.194;2022-11-24T07:06:14;11.50;99.90
1391;DHT22;690;51.454;7.194;2022-11-24T07:08:41;11.40;99.90
1391;DHT22;690;51.454;7.194;2022-11-24T07:11:10;11.40;99.90
1391;DHT22;690;51.454;7.194;2022-11-24T07:13:37;11.40;99.90
1391;DHT22;690;51.454;7.194;2022-11-24T07:16:12;11.40;99.90
1391;DHT22;690;51.454;7.194;2022-11-24T07:18:38;11.40;99.90
1391;DHT22;690;51.454;7.194;2022-11-24T07:21:06;11.40;99.90
1391;DHT22;690;51.454;7.194;2022-11-24T07:23:33;11.40;99.90
1391;DHT22;690;51.454;7.194;2022-11-24T07:26:01;11.30;99.90
1391;DHT22;690;51.454;7.194;2022-11-24T07:28:29;11.40;99.90
1391;DHT22;690;51.454;7.194;2022-11-24T07:30:56;11.30;99.90
1391;DHT22;690;51.454;7.194;2022-11-24T07:33:24;11.40;99.90
1391;DHT22;690;51.454;7.194;2022-11-24T07:35:51;11.40;99.90
1391;DHT22;690;51.454;7.194;2022-11-24T07:38:18;11.40;99.90
1391;DHT22;690;51.454;7.194;2022-11-24T07:40:46;11.40;99.90
1391;DHT22;690;51.454;7.194;2022-11-24T07:43:13;11.40;99.90
1391;DHT22;690;51.454;7.194;2022-11-24T07:45:39;11.40;99.90
1391;DHT22;690;51.454;7.194;2022-11-24T07:48:06;11.40;99.90
1391;DHT22;690;51.454;7.194;2022-11-24T07:50:36;11.40;99.90
1391;DHT22;690;51.454;7.194;2022-11-24T07:53:03;11.40;99.90
1391;DHT22;690;51.454;7.194;2022-11-24T07:55:30;11.50;99.90
1391;DHT22;690;51.454;7.194;2022-11-24T07:57:58;11.50;99.90
1391;DHT22;690;51.454;7.194;2022-11-24T08:00:25;11.50;99.90
1391;DHT22;690;51.454;7.194;2022-11-24T08:02:53;11.50;99.90
1391;DHT22;690;51.454;7.194;2022-11-24T08:05:20;11.50;99.90
1391;DHT22;690;51.454;7.194;2022-11-24T08:07:48;11.50;91.50
1391;DHT22;690;51.454;7.194;2022-11-24T08:10:16;11.50;65.30
1391;DHT22;690;51.454;7.194;2022-11-24T08:12:43;11.50;39.30
1391;DHT22;690;51.454;7.194;2022-11-24T08:15:10;11.50;36.20
1391;DHT22;690;51.454;7.194;2022-11-24T08:17:36;11.50;33.00
1391;DHT22;690;51.454;7.194;2022-11-24T08:20:04;11.40;30.10
1391;DHT22;690;51.454;7.194;2022-11-24T08:22:31;11.50;22.80
1391;DHT22;690;51.454;7.194;2022-11-24T08:25:00;11.40;19.40
1391;DHT22;690;51.454;7.194;2022-11-24T08:27:28;11.40;11.10
1391;DHT22;690;51.454;7.194;2022-11-24T08:29:55;11.40;14.80
1391;DHT22;690;51.454;7.194;2022-11-24T08:32:22;11.40;2.10
1391;DHT22;690;51.454;7.194;2022-11-24T08:34:49;11.40;1.00
1391;DHT22;690;51.454;7.194;2022-11-24T08:37:16;11.40;1.00
1391;DHT22;690;51.454;7.194;2022-11-24T08:39:43;11.40;1.00
1391;DHT22;690;51.454;7.194;2022-11-24T08:42:12;11.40;1.00
1391;DHT22;690;51.454;7.194;2022-11-24T08:44:39;11.40;1.00
1391;DHT22;690;51.454;7.194;2022-11-24T08:47:05;11.40;1.00
1391;DHT22;690;51.454;7.194;2022-11-24T08:49:32;11.40;1.00
1391;DHT22;690;51.454;7.194;2022-11-24T08:51:59;11.40;1.00
1391;DHT22;690;51.454;7.194;2022-11-24T08:54:26;11.40;1.00
1391;DHT22;690;51.454;7.194;2022-11-24T08:56:53;11.40;1.00
1391;DHT22;690;51.454;7.194;2022-11-24T08:59:21;11.40;1.00
1391;DHT22;690;51.454;7.194;2022-11-24T09:01:48;11.50;1.00
1391;DHT22;690;51.454;7.194;2022-11-24T09:04:15;11.50;1.00
1391;DHT22;690;51.454;7.194;2022-11-24T09:06:42;11.50;1.00
1391;DHT22;690;51.454;7.194;2022-11-24T09:09:09;11.50;1.00
1391;DHT22;690;51.454;7.194;2022-11-24T09:11:36;11.50;1.00
1391;DHT22;690;51.454;7.194;2022-11-24T09:14:03;11.50;1.00
1391;DHT22;690;51.454;7.194;2022-11-24T09:16:32;11.50;1.00
1391;DHT22;690;51.454;7.194;2022-11-24T09:19:00;11.50;1.00
1391;DHT22;690;51.454;7.194;2022-11-24T09:21:29;11.50;1.00
1391;DHT22;690;51.454;7.194;2022-11-24T09:23:56;11.50;1.00
1391;DHT22;690;51.454;7.194;2022-11-24T09:26:25;11.50;1.00
1391;DHT22;690;51.454;7.194;2022-11-24T09:28:53;11.50;1.00
1391;DHT22;690;51.454;7.194;2022-11-24T09:31:23;11.50;1.00
1391;DHT22;690;51.454;7.194;2022-11-24T09:33:52;11.50;1.00
1391;DHT22;690;51.454;7.194;2022-11-24T09:36:19;11.50;1.00
1391;DHT22;690;51.454;7.194;2022-11-24T09:38:46;11.50;1.00
1391;DHT22;690;51.454;7.194;2022-11-24T09:41:32;11.50;1.00
1391;DHT22;690;51.454;7.194;2022-11-24T09:44:07;11.60;1.00
1391;DHT22;690;51.454;7.194;2022-11-24T09:46:38;11.50;1.00
1391;DHT22;690;51.454;7.194;2022-11-24T09:49:12;11.50;1.00
1391;DHT22;690;51.454;7.194;2022-11-24T09:51:42;11.50;1.00
1391;DHT22;690;51.454;7.194;2022-11-24T09:54:12;11.50;1.00
1391;DHT22;690;51.454;7.194;2022-11-24T09:56:42;11.50;1.00
1391;DHT22;690;51.454;7.194;2022-11-24T09:59:13;11.60;1.00
1391;DHT22;690;51.454;7.194;2022-11-24T10:01:42;11.60;1.00
1391;DHT22;690;51.454;7.194;2022-11-24T10:04:15;11.60;1.00
1391;DHT22;690;51.454;7.194;2022-11-24T10:06:46;11.70;1.00
1391;DHT22;690;51.454;7.194;2022-11-24T10:09:40;11.70;1.00
1391;DHT22;690;51.454;7.194;2022-11-24T10:12:17;11.70;1.00
1391;DHT22;690;51.454;7.194;2022-11-24T10:15:12;11.70;1.00
1391;DHT22;690;51.454;7.194;2022-11-24T10:18:04;11.80;1.00
1391;DHT22;690;51.454;7.194;2022-11-24T10:20:47;11.80;1.00
1391;DHT22;690;51.454;7.194;2022-11-24T10:23:28;11.80;1.00
1391;DHT22;690;51.454;7.194;2022-11-24T10:26:00;11.80;1.00
1391;DHT22;690;51.454;7.194;2022-11-24T10:28:30;11.80;1.00
1391;DHT22;690;51.454;7.194;2022-11-24T10:31:15;11.80;1.00
1391;DHT22;690;51.454;7.194;2022-11-24T10:33:43;11.80;1.00
1391;DHT22;690;51.454;7.194;2022-11-24T10:36:17;11.80;1.00
1391;DHT22;690;51.454;7.194;2022-11-24T10:38:51;11.80;1.00
1391;DHT22;690;51.454;7.194;2022-11-24T10:41:23;11.80;1.00
1391;DHT22;690;51.454;7.194;2022-11-24T10:43:52;11.90;1.00
1391;DHT22;690;51.454;7.194;2022-11-24T10:46:23;11.90;1.00
1391;DHT22;690;51.454;7.194;2022-11-24T10:48:55;11.90;1.00
1391;DHT22;690;51.454;7.194;2022-11-24T10:51:40;11.90;1.00
1391;DHT22;690;51.454;7.194;2022-11-24T10:54:15;11.90;1.00
1391;DHT22;690;51.454;7.194;2022-11-24T10:56:44;12.00;1.00
1391;DHT22;690;51.454;7.194;2022-11-24T10:59:42;12.00;1.00
1391;DHT22;690;51.454;7.194;2022-11-24T11:02:34;12.10;1.00
1391;DHT22;690;51.454;7.194;2022-11-24T11:05:24;12.20;1.00
1391;DHT22;690;51.454;7.194;2022-11-24T11:08:10;12.30;1.00
1391;DHT22;690;51.454;7.194;2022-11-24T11:10:40;12.40;1.00
1391;DHT22;690;51.454;7.194;2022-11-24T11:13:20;12.50;1.00
1391;DHT22;690;51.454;7.194;2022-11-24T11:15:47;12.60;1.00
1391;DHT22;690;51.454;7.194;2022-11-24T11:18:16;12.70;1.00
1391;DHT22;690;51.454;7.194;2022-11-24T11:20:49;12.80;1.00
1391;DHT22;690;51.454;7.194;2022-11-24T11:23:24;12.80;1.00
1391;DHT22;690;51.454;7.194;2022-11-24T11:26:16;12.70;1.00
1391;DHT22;690;51.454;7.194;2022-11-24T11:28:56;12.80;1.00
1391;DHT22;690;51.454;7.194;2022-11-24T11:31:23;12.90;1.00
1391;DHT22;690;51.454;7.194;2022-11-24T11:33:56;12.90;1.00
1391;DHT22;690;51.454;7.194;2022-11-24T11:36:24;12.90;1.00
1391;DHT22;690;51.454;7.194;2022-11-24T11:38:52;12.90;1.00
1391;DHT22;690;51.454;7.194;2022-11-24T11:41:25;12.90;1.00
1391;DHT22;690;51.454;7.194;2022-11-24T11:44:03;12.90;1.00
1391;DHT22;690;51.454;7.194;2022-11-24T11:46:32;13.00;1.00
1391;DHT22;690;51.454;7.194;2022-11-24T11:49:00;13.00;1.00
1391;DHT22;690;51.454;7.194;2022-11-24T11:51:44;13.00;1.00
1391;DHT22;690;51.454;7.194;2022-11-24T11:54:25;13.00;1.00
1391;DHT22;690;51.454;7.194;2022-11-24T11:57:01;13.00;1.00
1391;DHT22;690;51.454;7.194;2022-11-24T11:59:44;13.10;1.00
1391;DHT22;690;51.454;7.194;2022-11-24T12:02:38;13.10;1.00
1391;DHT22;690;51.454;7.194;2022-11-24T12:05:14;13.10;1.00
1391;DHT22;690;51.454;7.194;2022-11-24T12:07:55;13.20;1.00
1391;DHT22;690;51.454;7.194;2022-11-24T12:10:31;13.20;1.00
1391;DHT22;690;51.454;7.194;2022-11-24T12:13:10;13.30;1.00
1391;DHT22;690;51.454;7.194;2022-11-24T12:15:46;13.30;1.00
1391;DHT22;690;51.454;7.194;2022-11-24T12:18:24;13.40;1.00
1391;DHT22;690;51.454;7.194;2022-11-24T12:21:01;13.60;1.00
1391;DHT22;690;51.454;7.194;2022-11-24T12:23:37;13.70;1.00
1391;DHT22;690;51.454;7.194;2022-11-24T12:26:13;13.70;1.00
1391;DHT22;690;51.454;7.194;2022-11-24T12:28:51;13.70;1.00
1391;DHT22;690;51.454;7.194;2022-11-24T12:31:27;13.60;1.00
1391;DHT22;690;51.454;7.194;2022-11-24T12:34:23;13.50;1.00
1391;DHT22;690;51.454;7.194;2022-11-24T12:37:10;13.40;1.00
1391;DHT22;690;51.454;7.194;2022-11-24T12:39:47;13.30;1.00
1391;DHT22;690;51.454;7.194;2022-11-24T12:42:28;13.30;1.00
1391;DHT22;690;51.454;7.194;2022-11-24T12:45:10;13.30;1.00
1391;DHT22;690;51.454;7.194;2022-11-24T12:47:55;13.30;1.00
1391;DHT22;690;51.454;7.194;2022-11-24T12:50:27;13.30;1.00
1391;DHT22;690;51.454;7.194;2022-11-24T12:52:58;13.30;1.00
1391;DHT22;690;51.454;7.194;2022-11-24T12:55:28;13.30;1.00
1391;DHT22;690;51.454;7.194;2022-11-24T12:58:04;13.30;1.00
1391;DHT22;690;51.454;7.194;2022-11-24T13:00:35;13.40;1.00
1391;DHT22;690;51.454;7.194;2022-11-24T13:03:16;13.50;1.00
1391;DHT22;690;51.454;7.194;2022-11-24T13:05:51;13.60;1.00
1391;DHT22;690;51.454;7.194;2022-11-24T13:08:19;13.60;1.00
1391;DHT22;690;51.454;7.194;2022-11-24T13:10:47;13.70;1.00
1391;DHT22;690;51.454;7.194;2022-11-24T13:13:15;13.80;1.00
1391;DHT22;690;51.454;7.194;2022-11-24T13:16:13;13.90;1.00
1391;DHT22;690;51.454;7.194;2022-11-24T13:18:42;14.00;1.00
1391;DHT22;690;51.454;7.194;2022-11-24T13:21:45;14.00;1.00
1391;DHT22;690;51.454;7.194;2022-11-24T13:24:24;14.00;1.00
1391;DHT22;690;51.454;7.194;2022-11-24T13:26:53;14.10;1.00
1391;DHT22;690;51.454;7.194;2022-11-24T13:29:32;14.10;1.00
1391;DHT22;690;51.454;7.194;2022-11-24T13:35:15;14.10;1.00
1391;DHT22;690;51.454;7.194;2022-11-24T13:37:49;14.00;1.00
1391;DHT22;690;51.454;7.194;2022-11-24T13:40:37;14.00;1.00
1391;DHT22;690;51.454;7.194;2022-11-24T13:43:20;14.00;1.00
1391;DHT22;690;51.454;7.194;2022-11-24T13:45:52;13.90;1.00
1391;DHT22;690;51.454;7.194;2022-11-24T13:48:51;13.90;1.00
1391;DHT22;690;51.454;7.194;2022-11-24T13:51:22;13.90;1.00
1391;DHT22;690;51.454;7.194;2022-11-24T13:53:53;13.90;1.00
1391;DHT22;690;51.454;7.194;2022-11-24T13:56:25;13.90;1.00
1391;DHT22;690;51.454;7.194;2022-11-24T13:58:56;13.90;1.00
1391;DHT22;690;51.454;7.194;2022-11-24T14:01:25;13.90;1.00
1391;DHT22;690;51.454;7.194;2022-11-24T14:04:03;13.90;1.00
1391;DHT22;690;51.454;7.194;2022-11-24T14:06:33;13.90;1.00
1391;DHT22;690;51.454;7.194;2022-11-24T14:09:13;13.80;1.00
1391;DHT22;690;51.454;7.194;2022-11-24T14:11:42;13.80;1.00
1391;DHT22;690;51.454;7.194;2022-11-24T14:14:16;13.80;1.00
1391;DHT22;690;51.454;7.194;2022-11-24T14:16:45;13.80;1.00
1391;DHT22;690;51.454;7.194;2022-11-24T14:19:17;13.70;1.00
1391;DHT22;690;51.454;7.194;2022-11-24T14:21:44;13.70;1.00
1391;DHT22;690;51.454;7.194;2022-11-24T14:24:18;13.70;1.00
1391;DHT22;690;51.454;7.194;2022-11-24T14:26:48;13.70;1.00
1391;DHT22;690;51.454;7.194;2022-11-24T14:29:17;13.70;1.00
1391;DHT22;690;51.454;7.194;2022-11-24T14:31:53;13.70;1.00
1391;DHT22;690;51.454;7.194;2022-11-24T14:34:22;13.60;1.00
1391;DHT22;690;51.454;7.194;2022-11-24T14:36:50;13.60;1.00
1391;DHT22;690;51.454;7.194;2022-11-24T14:39:20;13.60;1.00
1391;DHT22;690;51.454;7.194;2022-11-24T14:41:52;13.60;1.00
1391;DHT22;690;51.454;7.194;2022-11-24T14:44:21;13.50;1.00
1391;DHT22;690;51.454;7.194;2022-11-24T14:46:49;13.50;1.00
1391;DHT22;690;51.454;7.194;2022-11-24T14:49:21;13.50;1.00
1391;DHT22;690;51.454;7.194;2022-11-24T14:51:53;13.50;1.00
1391;DHT22;690;51.454;7.194;2022-11-24T14:54:22;13.40;1.00
1391;DHT22;690;51.454;7.194;2022-11-24T14:56:57;13.40;1.00
1391;DHT22;690;51.454;7.194;2022-11-24T14:59:26;13.30;1.00
1391;DHT22;690;51.454;7.194;2022-11-24T15:01:54;13.30;1.00
1391;DHT22;690;51.454;7.194;2022-11-24T15:04:23;13.20;1.00
1391;DHT22;690;51.454;7.194;2022-11-24T15:07:03;13.20;1.00
1391;DHT22;690;51.454;7.194;2022-11-24T15:09:33;13.10;1.00
1391;DHT22;690;51.454;7.194;2022-11-24T15:12:08;13.00;1.00
1391;DHT22;690;51.454;7.194;2022-11-24T15:14:46;13.00;1.00
1391;DHT22;690;51.454;7.194;2022-11-24T15:17:16;12.90;1.00
1391;DHT22;690;51.454;7.194;2022-11-24T15:19:47;12.90;1.00
1391;DHT22;690;51.454;7.194;2022-11-24T15:22:27;12.80;1.00
1391;DHT22;690;51.454;7.194;2022-11-24T15:24:58;12.80;1.00
1391;DHT22;690;51.454;7.194;2022-11-24T15:27:24;12.70;1.00
1391;DHT22;690;51.454;7.194;2022-11-24T15:29:51;12.70;1.00
1391;DHT22;690;51.454;7.194;2022-11-24T15:32:18;12.60;1.00
1391;DHT22;690;51.454;7.194;2022-11-24T15:34:46;12.60;1.00
1391;DHT22;690;51.454;7.194;2022-11-24T15:37:13;12.50;1.00
1391;DHT22;690;51.454;7.194;2022-11-24T15:39:40;12.40;1.00
1391;DHT22;690;51.454;7.194;2022-11-24T15:42:09;12.40;1.00
1391;DHT22;690;51.454;7.194;2022-11-24T15:44:37;12.30;1.00
1391;DHT22;690;51.454;7.194;2022-11-24T15:47:04;12.30;1.00
1391;DHT22;690;51.454;7.194;2022-11-24T15:49:30;12.30;1.00
1391;DHT22;690;51.454;7.194;2022-11-24T15:51:59;12.20;1.00
1391;DHT22;690;51.454;7.194;2022-11-24T15:54:26;12.20;1.00
1391;DHT22;690;51.454;7.194;2022-11-24T15:56:54;12.20;1.00
1391;DHT22;690;51.454;7.194;2022-11-24T15:59:21;12.10;1.00
1391;DHT22;690;51.454;7.194;2022-11-24T16:01:48;12.10;1.00
1391;DHT22;690;51.454;7.194;2022-11-24T16:04:15;12.00;1.00
1391;DHT22;690;51.454;7.194;2022-11-24T16:06:42;12.00;1.00
1391;DHT22;690;51.454;7.194;2022-11-24T16:09:14;11.90;1.00
1391;DHT22;690;51.454;7.194;2022-11-24T16:11:42;11.90;1.00
1391;DHT22;690;51.454;7.194;2022-11-24T16:14:09;11.90;1.00
1391;DHT22;690;51.454;7.194;2022-11-24T16:16:36;11.80;1.00
1391;DHT22;690;51.454;7.194;2022-11-24T16:19:03;11.80;1.00
1391;DHT22;690;51.454;7.194;2022-11-24T16:21:30;11.70;1.00
1391;DHT22;690;51.454;7.194;2022-11-24T16:23:56;11.70;1.00
1391;DHT22;690;51.454;7.194;2022-11-24T16:26:25;11.60;1.00
1391;DHT22;690;51.454;7.194;2022-11-24T16:28:51;11.60;1.00
1391;DHT22;690;51.454;7.194;2022-11-24T16:31:18;11.60;1.00
1391;DHT22;690;51.454;7.194;2022-11-24T16:33:45;11.50;1.00
1391;DHT22;690;51.454;7.194;2022-11-24T16:36:12;11.50;1.00
1391;DHT22;690;51.454;7.194;2022-11-24T16:38:39;11.50;1.00
1391;DHT22;690;51.454;7.194;2022-11-24T16:41:06;11.50;1.00
1391;DHT22;690;51.454;7.194;2022-11-24T16:43:36;11.40;1.00
1391;DHT22;690;51.454;7.194;2022-11-24T16:46:14;11.40;1.00
1391;DHT22;690;51.454;7.194;2022-11-24T16:48:42;11.40;1.00
1391;DHT22;690;51.454;7.194;2022-11-24T16:51:10;11.40;1.00
1391;DHT22;690;51.454;7.194;2022-11-24T16:53:38;11.30;1.00